createdAt,value
2018-07-05T00:01:38.712Z,2.50
2018-07-05T00:04:18.569Z,2.72
2018-07-05T00:06:58.276Z,2.50
2018-07-05T00:09:37.982Z,2.70
2018-07-05T00:12:17.934Z,2.50
2018-07-05T00:14:57.860Z,2.30
2018-07-05T00:17:37.618Z,2.30
2018-07-05T00:20:17.286Z,2.60
2018-07-05T00:22:57.894Z,2.50
2018-07-05T00:25:37.659Z,2.50
2018-07-05T00:28:19.851Z,2.77
2018-07-05T00:30:59.694Z,2.60
2018-07-05T00:33:39.985Z,2.90
2018-07-05T00:36:19.728Z,2.50
2018-07-05T00:38:59.807Z,2.60
2018-07-05T00:41:39.688Z,2.42
2018-07-05T00:44:19.670Z,2.80
2018-07-05T00:46:59.356Z,2.77
2018-07-05T00:49:39.058Z,2.30
2018-07-05T00:52:19.726Z,2.60
2018-07-05T00:55:00.044Z,2.70
2018-07-05T00:57:39.649Z,2.60
2018-07-05T01:00:19.399Z,2.60
2018-07-05T01:02:59.483Z,2.60
2018-07-05T01:05:39.244Z,2.70
2018-07-05T01:08:19.069Z,2.90
2018-07-05T01:11:00.150Z,2.67
2018-07-05T01:13:40.606Z,2.90
2018-07-05T01:16:20.935Z,2.50
2018-07-05T01:19:01.326Z,2.70
2018-07-05T01:21:42.108Z,2.67
2018-07-05T01:24:22.805Z,2.70
2018-07-05T01:27:03.301Z,3.00
2018-07-05T01:29:43.726Z,2.90
2018-07-05T01:32:23.974Z,3.10
2018-07-05T01:35:04.716Z,2.53
2018-07-05T01:37:44.964Z,2.85
2018-07-05T01:40:25.262Z,2.80
2018-07-05T01:43:05.593Z,2.70
2018-07-05T01:45:46.303Z,2.70
2018-07-05T01:48:26.789Z,2.70
2018-07-05T01:51:08.107Z,2.60
2018-07-05T01:53:48.569Z,2.75
2018-07-05T01:56:28.228Z,2.60
2018-07-05T01:59:07.953Z,2.80
2018-07-05T02:01:48.366Z,3.00
2018-07-05T02:04:28.261Z,2.63
2018-07-05T02:07:08.437Z,2.67
2018-07-05T02:09:49.055Z,2.87
2018-07-05T02:12:29.819Z,3.10
2018-07-05T02:15:09.786Z,2.65
2018-07-05T02:17:49.345Z,3.35
2018-07-05T02:20:29.425Z,2.62
2018-07-05T02:23:09.938Z,2.65
2018-07-05T02:25:49.734Z,3.00
2018-07-05T02:28:29.545Z,2.92
2018-07-05T02:31:09.405Z,2.70
2018-07-05T02:33:49.100Z,3.00
2018-07-05T02:36:33.241Z,3.00
2018-07-05T02:39:18.461Z,3.10
2018-07-05T02:41:58.677Z,3.02
2018-07-05T02:44:38.290Z,2.70
2018-07-05T02:47:18.735Z,3.20
2018-07-05T02:49:59.262Z,2.80
2018-07-05T02:52:39.279Z,3.10
2018-07-05T02:55:18.948Z,2.70
2018-07-05T02:57:58.895Z,3.05
2018-07-05T03:00:38.395Z,2.80
2018-07-05T03:03:18.129Z,4.22
2018-07-05T03:05:59.702Z,4.63
2018-07-05T03:08:39.537Z,3.30
2018-07-05T03:11:19.316Z,4.28
2018-07-05T03:13:59.485Z,4.00
2018-07-05T03:16:39.085Z,3.17
2018-07-05T03:19:19.222Z,3.30
2018-07-05T03:21:59.350Z,4.30
2018-07-05T03:24:39.233Z,3.87
2018-07-05T03:27:19.345Z,3.50
2018-07-05T03:29:59.558Z,3.42
2018-07-05T03:32:39.254Z,3.70
2018-07-05T03:35:19.197Z,3.92
2018-07-05T03:37:59.253Z,3.40
2018-07-05T03:40:39.211Z,3.60
2018-07-05T03:43:18.923Z,3.20
2018-07-05T03:45:58.563Z,4.35
2018-07-05T03:48:38.230Z,2.80
2018-07-05T03:51:17.807Z,2.90
2018-07-05T03:53:57.828Z,3.10
2018-07-05T03:56:37.873Z,3.20
2018-07-05T03:59:17.418Z,3.60
2018-07-05T04:01:57.545Z,3.10
2018-07-05T04:04:37.423Z,2.70
2018-07-05T04:07:17.131Z,3.12
2018-07-05T04:09:57.226Z,3.67
2018-07-05T04:12:37.460Z,3.08
2018-07-05T04:15:17.667Z,2.80
2018-07-05T04:17:58.233Z,3.22
2018-07-05T04:20:38.332Z,2.70
2018-07-05T04:23:18.358Z,3.27
2018-07-05T04:25:58.434Z,2.92
2018-07-05T04:28:38.620Z,4.15
2018-07-05T04:31:18.351Z,3.72
2018-07-05T04:33:58.725Z,3.50
2018-07-05T04:36:38.577Z,3.60
2018-07-05T04:39:18.408Z,3.70
2018-07-05T04:41:59.081Z,3.30
2018-07-05T04:44:38.821Z,3.58
2018-07-05T04:47:18.578Z,3.50
2018-07-05T04:49:58.334Z,3.17
2018-07-05T04:52:38.091Z,3.40
2018-07-05T04:55:18.229Z,3.80
2018-07-05T04:57:58.148Z,4.20
2018-07-05T05:00:38.615Z,4.70
2018-07-05T05:03:18.797Z,4.72
2018-07-05T05:05:58.517Z,4.33
2018-07-05T05:08:38.420Z,4.20
2018-07-05T05:11:18.562Z,4.43
2018-07-05T05:13:58.806Z,4.15
2018-07-05T05:16:38.471Z,3.90
2018-07-05T05:19:18.709Z,3.80
2018-07-05T05:22:06.621Z,3.50
2018-07-05T05:24:46.593Z,3.50
2018-07-05T05:27:26.332Z,3.25
2018-07-05T05:30:06.087Z,3.20
2018-07-05T05:32:46.650Z,2.80
2018-07-05T05:35:27.098Z,2.90
2018-07-05T05:38:07.295Z,2.80
2018-07-05T05:40:47.508Z,2.52
2018-07-05T05:43:27.550Z,2.00
2018-07-05T05:46:08.130Z,1.90
2018-07-05T05:48:48.087Z,1.85
2018-07-05T05:51:28.746Z,1.70
2018-07-05T05:54:09.270Z,1.80
2018-07-05T05:56:49.391Z,1.70
2018-07-05T05:59:30.314Z,1.75
2018-07-05T06:02:11.164Z,1.60
2018-07-05T06:04:51.280Z,1.90
2018-07-05T06:07:31.889Z,1.70
2018-07-05T06:10:12.554Z,1.30
2018-07-05T06:12:53.245Z,1.50
2018-07-05T06:15:34.226Z,1.30
2018-07-05T06:18:14.602Z,1.40
2018-07-05T06:20:54.252Z,1.80
2018-07-05T06:23:35.132Z,1.80
2018-07-05T06:26:16.733Z,2.10
2018-07-05T06:28:56.442Z,1.90
2018-07-05T06:31:36.372Z,2.08
2018-07-05T06:34:16.770Z,2.40
2018-07-05T06:36:57.162Z,2.60
2018-07-05T06:39:37.103Z,2.60
2018-07-05T06:42:18.082Z,4.20
2018-07-05T06:44:57.796Z,3.10
2018-07-05T06:47:38.371Z,2.90
2018-07-05T06:50:17.930Z,2.98
2018-07-05T06:52:57.856Z,3.10
2018-07-05T06:55:38.064Z,3.17
2018-07-05T06:58:18.968Z,2.90
2018-07-05T07:00:58.800Z,3.30
2018-07-05T07:03:38.183Z,3.60
2018-07-05T07:06:17.944Z,3.30
2018-07-05T07:08:57.511Z,2.90
2018-07-05T07:11:37.179Z,3.52
2018-07-05T07:14:17.458Z,3.40
2018-07-05T07:16:57.114Z,3.70
2018-07-05T07:19:39.122Z,2.90
2018-07-05T07:22:18.650Z,3.30
2018-07-05T07:24:58.347Z,2.90
2018-07-05T07:27:39.191Z,3.02
2018-07-05T07:30:18.718Z,2.50
2018-07-05T07:32:58.249Z,2.65
2018-07-05T07:35:38.224Z,2.30
2018-07-05T07:38:18.104Z,2.12
2018-07-05T07:40:57.813Z,2.52
2018-07-05T07:43:31.620Z,2.40
2018-07-05T07:45:59.256Z,2.00
2018-07-05T07:48:27.125Z,1.92
2018-07-05T07:50:55.740Z,1.57
2018-07-05T07:53:23.605Z,1.70
2018-07-05T07:55:51.776Z,1.70
2018-07-05T07:58:21.020Z,1.37
2018-07-05T08:00:49.553Z,1.75
2018-07-05T08:03:17.401Z,1.80
2018-07-05T08:05:45.818Z,1.72
2018-07-05T08:08:14.285Z,1.52
2018-07-05T08:10:42.428Z,1.60
2018-07-05T08:13:10.591Z,1.40
2018-07-05T08:15:38.679Z,1.37
2018-07-05T08:18:06.839Z,1.40
2018-07-05T08:20:34.839Z,1.47
2018-07-05T08:23:03.206Z,1.30
2018-07-05T08:25:31.113Z,1.20
2018-07-05T08:27:58.958Z,1.20
2018-07-05T08:30:27.567Z,1.30
2018-07-05T08:32:55.835Z,2.05
2018-07-05T08:35:23.777Z,1.37
2018-07-05T08:37:52.148Z,1.60
2018-07-05T08:40:20.563Z,1.20
2018-07-05T08:42:48.934Z,1.47
2018-07-05T08:45:17.180Z,1.10
2018-07-05T08:47:45.352Z,1.30
2018-07-05T08:50:14.079Z,1.30
2018-07-05T08:52:42.235Z,1.45
2018-07-05T08:55:10.059Z,1.27
2018-07-05T08:57:37.971Z,1.20
2018-07-05T09:00:06.176Z,1.30
2018-07-05T09:02:34.214Z,1.70
2018-07-05T09:05:02.731Z,1.10
2018-07-05T09:07:30.615Z,1.00
2018-07-05T09:09:58.523Z,1.10
2018-07-05T09:12:26.728Z,1.10
2018-07-05T09:14:54.974Z,1.80
2018-07-05T09:17:23.874Z,1.20
2018-07-05T09:19:52.161Z,1.30
2018-07-05T09:22:20.100Z,1.30
2018-07-05T09:24:48.483Z,1.10
2018-07-05T09:27:16.841Z,1.00
2018-07-05T09:29:44.890Z,1.17
2018-07-05T09:32:13.651Z,1.00
2018-07-05T09:34:41.504Z,1.10
2018-07-05T09:37:10.405Z,1.07
2018-07-05T09:39:38.451Z,1.70
2018-07-05T09:42:06.421Z,1.80
2018-07-05T09:44:34.066Z,1.33
2018-07-05T09:47:02.216Z,1.52
2018-07-05T09:49:30.865Z,1.40
2018-07-05T09:51:58.858Z,1.17
2018-07-05T09:54:27.408Z,1.10
2018-07-05T09:56:55.823Z,1.30
2018-07-05T09:59:25.058Z,1.40
2018-07-05T10:01:52.854Z,1.40
2018-07-05T10:04:20.912Z,1.20
2018-07-05T10:06:48.995Z,1.30
2018-07-05T10:09:16.756Z,1.20
2018-07-05T10:11:45.020Z,1.10
2018-07-05T10:14:12.739Z,1.50
2018-07-05T10:16:40.655Z,1.40
2018-07-05T10:19:08.672Z,1.15
2018-07-05T10:21:36.881Z,1.10
2018-07-05T10:24:04.199Z,1.40
2018-07-05T10:26:32.739Z,1.30
2018-07-05T10:29:07.225Z,1.20
2018-07-05T10:31:48.431Z,1.20
2018-07-05T10:34:22.841Z,1.20
2018-07-05T10:36:50.931Z,1.40
2018-07-05T10:39:18.215Z,1.10
2018-07-05T10:41:54.654Z,1.22
2018-07-05T10:44:35.436Z,1.40
2018-07-05T10:47:14.843Z,1.40
2018-07-05T10:49:54.995Z,1.57
2018-07-05T10:52:34.728Z,1.60
2018-07-05T10:55:16.589Z,1.30
2018-07-05T10:57:56.689Z,1.67
2018-07-05T11:00:36.725Z,1.50
2018-07-05T11:03:16.842Z,1.60
2018-07-05T11:05:56.469Z,1.20
2018-07-05T11:08:36.099Z,1.40
2018-07-05T11:11:15.962Z,1.30
2018-07-05T11:13:56.172Z,1.50
2018-07-05T11:16:36.100Z,1.40
2018-07-05T11:19:16.215Z,1.20
2018-07-05T11:21:56.142Z,1.30
2018-07-05T11:24:35.813Z,1.30
2018-07-05T11:27:15.562Z,1.20
2018-07-05T11:29:55.073Z,1.42
2018-07-05T11:32:34.726Z,1.30
2018-07-05T11:35:14.494Z,1.30
2018-07-05T11:37:54.275Z,1.35
2018-07-05T11:40:33.791Z,1.40
2018-07-05T11:43:13.721Z,1.93
2018-07-05T11:45:53.284Z,1.60
2018-07-05T11:48:32.597Z,1.60
2018-07-05T11:51:12.306Z,1.52
2018-07-05T11:53:52.110Z,1.57
2018-07-05T11:56:32.098Z,1.62
2018-07-05T11:59:11.578Z,1.90
2018-07-05T12:01:51.367Z,1.70
2018-07-05T12:04:30.982Z,1.50
2018-07-05T12:07:10.795Z,1.60
2018-07-05T12:09:50.265Z,1.47
2018-07-05T12:12:30.125Z,1.50
2018-07-05T12:15:09.792Z,1.70
2018-07-05T12:17:49.336Z,1.70
2018-07-05T12:20:29.361Z,1.50
2018-07-05T12:23:09.347Z,1.90
2018-07-05T12:25:48.789Z,1.75
2018-07-05T12:28:28.670Z,1.70
2018-07-05T12:31:08.419Z,1.70
2018-07-05T12:33:48.465Z,1.67
2018-07-05T12:36:28.102Z,1.80
2018-07-05T12:39:08.762Z,1.67
2018-07-05T12:41:48.432Z,1.90
2018-07-05T12:44:28.275Z,1.50
2018-07-05T12:47:07.856Z,1.57
2018-07-05T12:49:47.825Z,2.00
2018-07-05T12:52:29.129Z,1.65
2018-07-05T12:55:09.413Z,1.80
2018-07-05T12:57:49.866Z,1.60
2018-07-05T13:00:29.706Z,1.70
2018-07-05T13:03:10.086Z,1.70
2018-07-05T13:05:49.850Z,1.70
2018-07-05T13:08:29.615Z,1.50
2018-07-05T13:11:10.334Z,1.80
2018-07-05T13:13:50.327Z,1.80
2018-07-05T13:16:30.884Z,1.70
2018-07-05T13:19:11.390Z,2.15
2018-07-05T13:21:51.067Z,1.70
2018-07-05T13:24:32.258Z,1.70
2018-07-05T13:27:11.958Z,1.70
2018-07-05T13:29:54.063Z,1.50
2018-07-05T13:32:34.919Z,1.60
2018-07-05T13:35:14.709Z,1.40
2018-07-05T13:37:54.506Z,1.70
2018-07-05T13:40:34.408Z,1.50
2018-07-05T13:43:14.651Z,1.50
2018-07-05T13:45:54.235Z,1.30
2018-07-05T13:48:33.982Z,1.70
2018-07-05T13:51:13.663Z,1.43
2018-07-05T13:53:53.562Z,1.30
2018-07-05T13:56:33.939Z,1.10
2018-07-05T13:59:14.095Z,1.25
2018-07-05T14:01:55.942Z,1.30
2018-07-05T14:04:36.237Z,1.20
2018-07-05T14:07:16.219Z,1.20
2018-07-05T14:09:56.414Z,1.27
2018-07-05T14:12:36.375Z,1.32
2018-07-05T14:15:16.190Z,1.37
2018-07-05T14:17:56.853Z,1.43
2018-07-05T14:20:37.600Z,1.30
2018-07-05T14:23:17.541Z,1.40
2018-07-05T14:25:57.591Z,1.50
2018-07-05T14:28:38.025Z,1.70
2018-07-05T14:31:18.480Z,1.73
2018-07-05T14:33:58.946Z,1.60
2018-07-05T14:36:39.446Z,1.40
2018-07-05T14:39:20.202Z,1.60
2018-07-05T14:41:59.695Z,1.50
2018-07-05T14:44:39.785Z,1.35
2018-07-05T14:47:20.581Z,1.10
2018-07-05T14:50:00.395Z,1.20
2018-07-05T14:52:41.443Z,1.20
2018-07-05T14:55:21.376Z,1.02
2018-07-05T14:58:02.247Z,1.00
2018-07-05T15:00:43.013Z,1.10
2018-07-05T15:03:22.615Z,1.30
2018-07-05T15:06:04.598Z,0.90
2018-07-05T15:08:44.388Z,0.90
2018-07-05T15:11:24.050Z,1.03
2018-07-05T15:14:03.974Z,1.40
2018-07-05T15:16:44.837Z,1.65
2018-07-05T15:19:24.574Z,1.30
2018-07-05T15:22:04.927Z,1.10
2018-07-05T15:24:45.102Z,1.00
2018-07-05T15:27:25.666Z,1.20
2018-07-05T15:30:05.339Z,1.20
2018-07-05T15:32:46.792Z,1.30
2018-07-05T15:35:28.488Z,1.20
2018-07-05T15:38:09.036Z,1.50
2018-07-05T15:40:50.119Z,1.10
2018-07-05T15:43:31.603Z,1.30
2018-07-05T15:46:12.076Z,1.20
2018-07-05T15:48:52.612Z,1.40
2018-07-05T15:51:33.407Z,1.20
2018-07-05T15:54:14.623Z,1.35
2018-07-05T15:56:55.369Z,1.40
2018-07-05T15:59:36.049Z,1.60
2018-07-05T16:02:16.258Z,1.50
2018-07-05T16:04:57.322Z,1.20
2018-07-05T16:07:38.373Z,1.30
2018-07-05T16:10:20.463Z,1.30
2018-07-05T16:13:01.070Z,1.60
2018-07-05T16:15:43.042Z,1.20
2018-07-05T16:18:24.821Z,1.30
2018-07-05T16:21:08.122Z,1.40
2018-07-05T16:23:49.423Z,1.30
2018-07-05T16:26:29.906Z,1.47
2018-07-05T16:29:10.722Z,1.72
2018-07-05T16:31:51.455Z,1.57
2018-07-05T16:34:32.521Z,1.40
2018-07-05T16:37:13.698Z,1.40
2018-07-05T16:39:53.809Z,1.50
2018-07-05T16:42:34.548Z,1.65
2018-07-05T16:45:15.049Z,1.70
2018-07-05T16:47:56.404Z,2.00
2018-07-05T16:50:37.839Z,2.20
2018-07-05T16:53:17.877Z,1.87
2018-07-05T16:55:57.687Z,1.70
2018-07-05T16:58:37.743Z,1.57
2018-07-05T17:01:17.792Z,1.80
2018-07-05T17:03:57.351Z,1.90
2018-07-05T17:06:46.327Z,2.00
2018-07-05T17:09:27.636Z,1.60
2018-07-05T17:12:07.577Z,1.77
2018-07-05T17:14:50.267Z,1.98
2018-07-05T17:17:32.524Z,1.80
2018-07-05T17:20:12.081Z,1.60
2018-07-05T17:22:53.096Z,1.90
2018-07-05T17:25:34.865Z,1.65
2018-07-05T17:28:15.777Z,3.00
2018-07-05T17:32:35.074Z,6.40
2018-07-05T17:35:17.713Z,6.17
2018-07-05T17:37:57.495Z,5.58
2018-07-05T17:40:52.434Z,2.72
2018-07-05T17:43:32.154Z,3.10
2018-07-05T17:46:13.406Z,2.70
2018-07-05T17:48:54.686Z,5.00
2018-07-05T17:51:36.451Z,3.10
2018-07-05T17:54:17.197Z,2.02
2018-07-05T17:56:57.410Z,2.50
2018-07-05T17:59:38.609Z,2.40
2018-07-05T18:02:19.554Z,1.60
2018-07-05T18:04:59.710Z,1.85
2018-07-05T18:07:39.381Z,1.65
2018-07-05T18:10:19.505Z,1.20
2018-07-05T18:12:59.296Z,1.22
2018-07-05T18:15:39.150Z,1.40
2018-07-05T18:18:21.260Z,1.40
2018-07-05T18:21:05.112Z,1.50
2018-07-05T18:23:46.033Z,1.60
2018-07-05T18:26:27.983Z,2.22
2018-07-05T18:29:08.629Z,1.30
2018-07-05T18:31:49.852Z,1.20
2018-07-05T18:34:30.601Z,1.20
2018-07-05T18:37:11.379Z,1.30
2018-07-05T18:39:53.625Z,1.30
2018-07-05T18:42:35.248Z,1.40
2018-07-05T18:45:16.870Z,1.30
2018-07-05T18:47:59.353Z,1.30
2018-07-05T18:50:40.700Z,1.40
2018-07-05T18:53:23.029Z,1.20
2018-07-05T18:56:02.942Z,0.90
2018-07-05T18:58:44.137Z,0.80
2018-07-05T19:01:28.006Z,0.90
2018-07-05T19:04:10.445Z,1.00
2018-07-05T19:06:51.549Z,1.42
2018-07-05T19:09:36.426Z,1.40
2018-07-05T19:12:18.115Z,1.40
2018-07-05T19:14:59.896Z,1.00
2018-07-05T19:17:44.197Z,1.00
2018-07-05T19:20:26.046Z,0.80
2018-07-05T19:23:07.533Z,1.10
2018-07-05T19:25:49.096Z,0.90
2018-07-05T19:28:30.166Z,1.15
2018-07-05T19:31:12.115Z,1.10
2018-07-05T19:33:55.281Z,0.90
2018-07-05T19:36:39.048Z,1.20
2018-07-05T19:39:21.593Z,1.25
2018-07-05T19:42:04.845Z,1.90
2018-07-05T19:44:45.647Z,2.50
2018-07-05T19:47:27.192Z,1.40
2018-07-05T19:50:08.136Z,1.32
2018-07-05T19:52:48.790Z,1.40
2018-07-05T19:55:31.340Z,1.10
2018-07-05T19:58:11.530Z,1.30
2018-07-05T20:00:51.936Z,1.20
2018-07-05T20:03:32.354Z,1.00
2018-07-05T20:06:12.526Z,0.98
2018-07-05T20:08:53.344Z,1.10
2018-07-05T20:11:33.694Z,1.60
2018-07-05T20:14:13.982Z,2.30
2018-07-05T20:16:57.842Z,1.02
2018-07-05T20:19:38.308Z,1.03
2018-07-05T20:22:19.990Z,1.00
2018-07-05T20:25:00.626Z,1.10
2018-07-05T20:27:41.042Z,1.00
2018-07-05T20:30:21.306Z,1.10
2018-07-05T20:33:01.676Z,1.00
2018-07-05T20:35:41.936Z,1.27
2018-07-05T20:38:22.145Z,1.30
2018-07-05T20:41:03.311Z,1.30
2018-07-05T20:43:44.478Z,1.37
2018-07-05T20:46:25.012Z,1.20
2018-07-05T20:49:06.348Z,1.30
2018-07-05T20:51:47.064Z,1.32
2018-07-05T20:54:27.736Z,1.47
2018-07-05T20:57:08.588Z,1.50
2018-07-05T20:59:49.651Z,2.42
2018-07-05T21:02:30.280Z,3.25
2018-07-05T21:05:10.789Z,1.40
2018-07-05T21:07:51.588Z,1.00
2018-07-05T21:10:31.942Z,1.40
2018-07-05T21:13:12.310Z,1.00
2018-07-05T21:15:52.477Z,1.20
2018-07-05T21:18:32.890Z,1.00
2018-07-05T21:21:17.497Z,1.00
2018-07-05T21:23:58.104Z,1.10
2018-07-05T21:26:38.488Z,1.10
2018-07-05T21:29:19.078Z,0.90
2018-07-05T21:31:59.295Z,0.80
2018-07-05T21:34:39.059Z,0.80
2018-07-05T21:37:19.678Z,0.70
2018-07-05T21:40:00.230Z,0.90
2018-07-05T21:42:40.440Z,0.80
2018-07-05T21:45:21.085Z,0.88
2018-07-05T21:48:00.979Z,0.88
2018-07-05T21:50:41.169Z,0.80
2018-07-05T21:53:21.723Z,1.00
2018-07-05T21:56:01.546Z,1.10
2018-07-05T21:58:42.076Z,0.90
2018-07-05T22:01:22.485Z,1.00
2018-07-05T22:04:03.255Z,1.00
2018-07-05T22:06:46.889Z,0.90
2018-07-05T22:09:27.585Z,0.90
2018-07-05T22:12:07.802Z,0.90
2018-07-05T22:14:47.906Z,1.00
2018-07-05T22:17:33.402Z,0.97
2018-07-05T22:20:18.513Z,0.93
2018-07-05T22:24:03.824Z,1.20
2018-07-05T22:26:46.148Z,0.90
2018-07-05T22:29:32.003Z,0.80
2018-07-05T22:32:12.227Z,0.80
2018-07-05T22:34:52.497Z,0.90
2018-07-05T22:37:32.795Z,1.17
2018-07-05T22:40:13.002Z,1.45
2018-07-05T22:42:53.398Z,1.70
2018-07-05T22:45:33.502Z,1.60
2018-07-05T22:48:13.569Z,1.92
2018-07-05T22:50:54.034Z,2.05
2018-07-05T22:53:34.841Z,2.10
2018-07-05T22:56:15.073Z,1.87
2018-07-05T22:58:56.810Z,1.77
2018-07-05T23:01:37.108Z,1.70
2018-07-05T23:04:17.405Z,1.90
2018-07-05T23:06:57.878Z,2.00
2018-07-05T23:09:38.287Z,1.65
2018-07-05T23:12:18.532Z,1.80
2018-07-05T23:14:58.434Z,1.90
2018-07-05T23:17:38.354Z,1.80
2018-07-05T23:20:18.179Z,1.90
2018-07-05T23:22:58.410Z,1.80
2018-07-05T23:25:38.358Z,1.60
2018-07-05T23:28:18.330Z,1.57
2018-07-05T23:30:58.736Z,1.42
2018-07-05T23:33:38.805Z,1.50
2018-07-05T23:36:19.333Z,1.60
2018-07-05T23:39:00.169Z,1.40
2018-07-05T23:41:41.270Z,1.70
2018-07-05T23:44:21.477Z,1.50
2018-07-05T23:47:01.922Z,1.60
2018-07-05T23:49:41.570Z,1.30
2018-07-05T23:52:21.531Z,1.20
2018-07-05T23:55:01.848Z,1.32
2018-07-05T23:57:41.829Z,1.20
